createdAt,value
2022-12-16T00:01:54.033Z,65.65
2022-12-16T00:04:24.756Z,65.13
2022-12-16T00:06:54.001Z,65.00
2022-12-16T00:09:24.509Z,64.97
2022-12-16T00:11:54.177Z,65.08
2022-12-16T00:14:24.240Z,64.22
2022-12-16T00:16:53.784Z,63.66
2022-12-16T00:19:24.283Z,63.37
2022-12-16T00:21:53.829Z,63.74
2022-12-16T00:24:24.584Z,63.42
2022-12-16T00:26:54.459Z,63.79
2022-12-16T00:29:25.178Z,63.67
2022-12-16T00:31:54.802Z,63.32
2022-12-16T00:34:24.322Z,63.30
2022-12-16T00:36:54.125Z,63.32
2022-12-16T00:39:23.547Z,62.74
2022-12-16T00:41:53.530Z,62.92
2022-12-16T00:44:24.448Z,61.41
2022-12-16T00:46:54.009Z,61.45
2022-12-16T00:49:24.625Z,60.93
2022-12-16T00:51:54.172Z,60.62
2022-12-16T00:54:24.855Z,59.94
2022-12-16T00:56:54.887Z,60.10
2022-12-16T00:59:24.861Z,60.08
2022-12-16T01:01:58.996Z,60.21
2022-12-16T01:04:31.333Z,60.47
2022-12-16T01:07:07.697Z,61.02
2022-12-16T01:09:42.186Z,61.45
2022-12-16T01:12:14.875Z,60.89
2022-12-16T01:14:46.642Z,62.33
2022-12-16T01:17:16.534Z,62.85
2022-12-16T01:19:46.862Z,63.33
2022-12-16T01:22:17.020Z,63.80
2022-12-16T01:24:47.408Z,63.51
2022-12-16T01:27:17.976Z,64.15
2022-12-16T01:29:48.278Z,64.28
2022-12-16T01:32:18.435Z,64.42
2022-12-16T01:34:55.856Z,64.83
2022-12-16T01:37:26.554Z,65.41
2022-12-16T01:39:56.528Z,65.38
2022-12-16T01:42:30.046Z,66.29
2022-12-16T01:45:20.048Z,66.82
2022-12-16T01:47:50.084Z,67.06
2022-12-16T01:50:21.299Z,67.51
2022-12-16T01:52:57.301Z,67.75
2022-12-16T01:55:34.314Z,68.15
2022-12-16T01:58:13.132Z,68.74
2022-12-16T02:00:43.716Z,69.24
2022-12-16T02:03:14.280Z,69.16
2022-12-16T02:05:46.476Z,69.57
2022-12-16T02:08:21.652Z,69.90
2022-12-16T02:11:29.788Z,70.03
2022-12-16T02:14:24.590Z,70.42
2022-12-16T02:17:01.666Z,70.66
2022-12-16T02:20:15.482Z,70.67
2022-12-16T02:22:54.572Z,70.96
2022-12-16T02:25:55.357Z,71.52
2022-12-16T02:28:37.135Z,72.03
2022-12-16T02:31:30.888Z,71.99
2022-12-16T02:34:10.154Z,71.95
2022-12-16T02:37:18.161Z,72.28
2022-12-16T02:39:54.858Z,72.75
2022-12-16T02:42:54.999Z,73.10
2022-12-16T02:45:32.610Z,73.16
2022-12-16T02:48:02.407Z,73.23
2022-12-16T02:50:54.370Z,72.85
2022-12-16T02:53:38.435Z,72.60
2022-12-16T02:56:19.978Z,72.33
2022-12-16T02:59:08.220Z,72.10
2022-12-16T03:02:03.657Z,72.37
2022-12-16T03:04:38.861Z,72.43
2022-12-16T03:07:15.282Z,71.27
2022-12-16T03:09:47.913Z,71.06
2022-12-16T03:12:22.133Z,70.36
2022-12-16T03:14:54.804Z,68.84
2022-12-16T03:17:28.140Z,68.59
2022-12-16T03:20:13.504Z,67.60
2022-12-16T03:22:47.186Z,67.92
2022-12-16T03:25:19.347Z,67.27
2022-12-16T03:28:21.132Z,67.44
2022-12-16T03:30:59.574Z,66.76
2022-12-16T03:33:39.852Z,66.48
2022-12-16T03:36:17.637Z,66.44
2022-12-16T03:38:49.309Z,65.82
2022-12-16T03:41:22.138Z,65.21
2022-12-16T03:43:54.058Z,64.81
2022-12-16T03:46:24.014Z,64.63
2022-12-16T03:48:54.886Z,63.96
2022-12-16T03:51:25.735Z,63.47
2022-12-16T03:53:55.637Z,63.60
2022-12-16T03:56:25.213Z,63.44
2022-12-16T03:58:54.702Z,63.38
2022-12-16T04:01:25.265Z,62.78
2022-12-16T04:03:55.761Z,62.87
2022-12-16T04:06:26.042Z,62.00
2022-12-16T04:08:56.328Z,62.06
2022-12-16T04:11:44.305Z,61.91
2022-12-16T04:14:31.955Z,62.16
2022-12-16T04:17:20.201Z,61.91
2022-12-16T04:20:08.854Z,61.99
2022-12-16T04:22:59.841Z,61.31
2022-12-16T04:25:37.912Z,63.33
2022-12-16T04:28:08.034Z,65.17
2022-12-16T04:30:38.182Z,65.86
2022-12-16T04:33:35.207Z,65.87
2022-12-16T04:36:23.720Z,65.42
2022-12-16T04:39:12.695Z,65.96
2022-12-16T04:42:00.884Z,65.24
2022-12-16T04:44:49.215Z,65.04
2022-12-16T04:47:37.719Z,64.83
2022-12-16T04:50:26.366Z,64.54
2022-12-16T04:53:14.216Z,63.79
2022-12-16T04:56:04.371Z,63.66
2022-12-16T04:58:52.610Z,63.55
2022-12-16T05:01:41.386Z,63.29
2022-12-16T05:04:29.341Z,63.00
2022-12-16T05:07:17.183Z,63.20
2022-12-16T05:10:05.868Z,62.98
2022-12-16T05:12:54.315Z,61.99
2022-12-16T05:15:42.562Z,61.34
2022-12-16T05:18:35.750Z,57.49
2022-12-16T05:21:23.816Z,55.51
2022-12-16T05:24:11.888Z,54.01
2022-12-16T05:27:00.226Z,54.66
2022-12-16T05:29:48.901Z,52.73
2022-12-16T05:32:37.196Z,53.07
2022-12-16T05:35:26.196Z,52.73
2022-12-16T05:38:14.671Z,52.45
2022-12-16T05:41:02.769Z,51.95
2022-12-16T05:43:51.425Z,52.11
2022-12-16T05:46:39.967Z,50.04
2022-12-16T05:49:28.244Z,48.56
2022-12-16T05:52:16.951Z,48.41
2022-12-16T05:55:05.942Z,47.47
2022-12-16T05:57:53.675Z,47.63
2022-12-16T06:00:41.761Z,46.53
2022-12-16T06:03:30.548Z,46.37
2022-12-16T06:06:19.628Z,47.10
2022-12-16T06:09:09.633Z,47.31
2022-12-16T06:11:58.366Z,46.30
2022-12-16T06:14:47.666Z,45.75
2022-12-16T06:17:36.034Z,45.22
2022-12-16T06:20:24.621Z,45.62
2022-12-16T06:23:13.487Z,45.20
2022-12-16T06:26:02.684Z,44.84
2022-12-16T06:28:50.952Z,43.96
2022-12-16T06:31:39.289Z,44.22
2022-12-16T06:34:27.862Z,44.75
2022-12-16T06:37:17.387Z,45.37
2022-12-16T06:40:05.141Z,44.08
2022-12-16T06:42:53.288Z,43.91
2022-12-16T06:45:41.862Z,44.00
2022-12-16T06:48:30.390Z,44.28
2022-12-16T06:51:19.594Z,44.39
2022-12-16T06:54:08.668Z,43.75
2022-12-16T06:56:58.280Z,43.60
2022-12-16T06:59:46.412Z,44.17
2022-12-16T07:02:34.715Z,44.14
2022-12-16T07:05:22.711Z,44.27
2022-12-16T07:08:11.862Z,44.14
2022-12-16T07:11:15.574Z,44.56
2022-12-16T07:14:05.055Z,44.38
2022-12-16T07:16:58.405Z,44.21
2022-12-16T07:19:46.585Z,44.67
2022-12-16T07:22:34.586Z,44.68
2022-12-16T07:25:22.887Z,45.21
2022-12-16T07:28:15.432Z,44.87
2022-12-16T07:31:04.285Z,44.70
2022-12-16T07:33:52.297Z,44.68
2022-12-16T07:36:43.244Z,45.41
2022-12-16T07:39:31.678Z,45.71
2022-12-16T07:42:36.399Z,44.30
2022-12-16T07:45:25.523Z,45.32
2022-12-16T07:48:13.229Z,43.93
2022-12-16T07:51:01.937Z,44.38
2022-12-16T07:53:50.527Z,44.12
2022-12-16T07:56:38.670Z,43.21
2022-12-16T07:59:26.446Z,43.97
2022-12-16T08:02:14.357Z,43.57
2022-12-16T08:05:02.510Z,42.88
2022-12-16T08:07:50.867Z,42.93
2022-12-16T08:10:38.812Z,43.47
2022-12-16T08:13:26.743Z,42.89
2022-12-16T08:16:15.045Z,43.08
2022-12-16T08:22:12.192Z,43.28
2022-12-16T08:24:59.646Z,43.46
2022-12-16T08:27:47.817Z,42.71
2022-12-16T08:30:35.438Z,42.90
2022-12-16T08:33:24.533Z,42.36
2022-12-16T08:36:12.455Z,41.95
2022-12-16T08:39:02.186Z,42.19
2022-12-16T08:41:49.933Z,41.82
2022-12-16T08:44:38.125Z,42.43
2022-12-16T08:47:25.959Z,43.34
2022-12-16T08:50:14.716Z,41.97
2022-12-16T08:53:03.152Z,40.47
2022-12-16T08:55:51.576Z,41.35
2022-12-16T08:58:44.007Z,42.65
2022-12-16T09:01:32.025Z,42.57
2022-12-16T09:04:20.779Z,41.75
2022-12-16T09:07:08.625Z,40.04
2022-12-16T09:09:56.604Z,40.04
2022-12-16T09:12:52.492Z,40.84
2022-12-16T09:15:41.443Z,40.93
2022-12-16T09:18:30.311Z,41.24
2022-12-16T09:21:18.654Z,41.27
2022-12-16T09:24:06.997Z,41.51
2022-12-16T09:26:54.938Z,41.11
2022-12-16T09:29:45.080Z,41.62
2022-12-16T09:32:34.080Z,41.30
2022-12-16T09:35:22.873Z,41.45
2022-12-16T09:38:11.051Z,40.54
2022-12-16T09:41:00.657Z,41.63
2022-12-16T09:44:22.234Z,41.15
2022-12-16T09:47:17.439Z,41.13
2022-12-16T09:50:10.752Z,41.12
2022-12-16T09:53:10.814Z,39.84
2022-12-16T09:56:04.050Z,40.90
2022-12-16T09:59:07.781Z,41.44
2022-12-16T10:01:58.618Z,41.83
2022-12-16T10:04:47.296Z,42.46
2022-12-16T10:07:41.113Z,41.94
2022-12-16T10:10:47.388Z,41.61
2022-12-16T10:13:47.612Z,41.60
2022-12-16T10:16:48.660Z,41.90
2022-12-16T10:20:09.816Z,40.51
2022-12-16T10:23:10.792Z,41.49
2022-12-16T10:26:29.723Z,42.19
2022-12-16T10:29:45.150Z,43.29
2022-12-16T10:33:10.568Z,42.99
2022-12-16T10:36:09.404Z,42.24
2022-12-16T10:39:18.036Z,42.26
2022-12-16T10:42:10.332Z,42.44
2022-12-16T10:44:58.396Z,42.00
2022-12-16T10:47:46.073Z,42.77
2022-12-16T10:50:34.843Z,43.17
2022-12-16T10:53:30.802Z,44.37
2022-12-16T10:56:36.779Z,44.75
2022-12-16T10:59:29.004Z,45.77
2022-12-16T11:02:25.851Z,46.01
2022-12-16T11:05:13.829Z,46.34
2022-12-16T11:08:04.287Z,46.25
2022-12-16T11:11:01.759Z,46.00
2022-12-16T11:13:53.764Z,46.29
2022-12-16T11:16:45.961Z,46.40
2022-12-16T11:19:53.864Z,46.49
2022-12-16T11:22:43.551Z,47.23
2022-12-16T11:25:37.487Z,47.48
2022-12-16T11:28:33.794Z,47.84
2022-12-16T11:31:42.655Z,47.70
2022-12-16T11:34:31.373Z,48.85
2022-12-16T11:37:21.246Z,49.08
2022-12-16T11:40:09.624Z,48.91
2022-12-16T11:43:02.650Z,49.45
2022-12-16T11:45:54.822Z,49.63
2022-12-16T11:49:13.006Z,49.83
2022-12-16T11:52:28.108Z,50.20
2022-12-16T11:59:10.908Z,51.51
2022-12-16T12:02:17.727Z,52.33
2022-12-16T12:05:11.740Z,52.19
2022-12-16T12:08:25.541Z,52.35
2022-12-16T12:11:41.379Z,53.21
2022-12-16T12:14:50.665Z,53.65
2022-12-16T12:17:43.296Z,54.20
2022-12-16T12:20:50.122Z,55.03
2022-12-16T12:23:57.880Z,54.25
2022-12-16T12:26:55.092Z,55.33
2022-12-16T12:30:16.350Z,55.23
2022-12-16T12:33:32.295Z,55.82
2022-12-16T12:36:34.523Z,56.35
2022-12-16T12:39:52.724Z,57.00
2022-12-16T12:43:10.841Z,57.42
2022-12-16T12:46:24.727Z,58.05
2022-12-16T12:49:31.382Z,58.46
2022-12-16T12:52:57.727Z,58.75
2022-12-16T12:56:01.989Z,60.09
2022-12-16T12:58:54.364Z,59.83
2022-12-16T13:01:50.800Z,60.25
2022-12-16T13:04:43.111Z,60.68
2022-12-16T13:07:31.399Z,61.69
2022-12-16T13:10:45.294Z,62.42
2022-12-16T13:13:48.673Z,62.36
2022-12-16T13:17:03.863Z,62.48
2022-12-16T13:19:51.326Z,63.52
2022-12-16T13:22:56.224Z,63.42
2022-12-16T13:26:18.272Z,63.90
2022-12-16T13:29:34.551Z,63.64
2022-12-16T13:32:24.017Z,64.42
2022-12-16T13:35:29.656Z,64.20
2022-12-16T13:38:38.590Z,65.15
2022-12-16T13:41:46.876Z,65.56
2022-12-16T13:45:04.022Z,66.09
2022-12-16T13:47:54.663Z,66.54
2022-12-16T13:51:00.586Z,66.45
2022-12-16T13:53:52.699Z,66.52
2022-12-16T13:57:08.080Z,66.50
2022-12-16T14:00:00.637Z,66.03
2022-12-16T14:03:17.695Z,66.39
2022-12-16T14:06:05.292Z,67.17
2022-12-16T14:08:57.863Z,67.22
2022-12-16T14:12:13.030Z,67.11
2022-12-16T14:15:11.743Z,67.15
2022-12-16T14:18:19.557Z,67.25
2022-12-16T14:21:26.747Z,67.24
2022-12-16T14:24:30.714Z,68.23
2022-12-16T14:27:24.391Z,67.83
2022-12-16T14:30:12.364Z,67.84
2022-12-16T14:33:00.856Z,67.98
2022-12-16T14:35:48.957Z,68.79
2022-12-16T14:38:50.029Z,69.31
2022-12-16T14:41:45.699Z,69.66
2022-12-16T14:44:41.879Z,69.90
2022-12-16T14:47:41.758Z,70.03
2022-12-16T14:50:42.046Z,69.27
2022-12-16T14:53:44.069Z,69.56
2022-12-16T14:56:39.039Z,69.28
2022-12-16T14:59:38.561Z,69.22
2022-12-16T15:02:51.561Z,69.15
2022-12-16T15:05:41.602Z,69.17
2022-12-16T15:08:32.979Z,69.36
2022-12-16T15:11:24.231Z,69.24
2022-12-16T15:14:18.048Z,69.82
2022-12-16T15:17:09.628Z,69.92
2022-12-16T15:20:05.607Z,70.65
2022-12-16T15:22:54.621Z,70.81
2022-12-16T15:25:47.116Z,71.25
2022-12-16T15:28:59.317Z,71.33
2022-12-16T15:32:13.663Z,71.57
2022-12-16T15:35:09.357Z,71.70
2022-12-16T15:38:04.431Z,71.84
2022-12-16T15:41:04.639Z,71.57
2022-12-16T15:43:57.557Z,72.39
2022-12-16T15:46:50.746Z,72.02
2022-12-16T15:50:04.109Z,72.42
2022-12-16T15:53:01.020Z,72.49
2022-12-16T15:56:04.935Z,73.09
2022-12-16T15:58:55.517Z,73.61
2022-12-16T16:01:48.012Z,73.50
2022-12-16T16:04:48.106Z,73.86
2022-12-16T16:07:38.723Z,74.09
2022-12-16T16:10:46.786Z,74.34
2022-12-16T16:13:35.144Z,74.39
2022-12-16T16:16:24.374Z,75.03
2022-12-16T16:19:12.412Z,75.26
2022-12-16T16:22:00.716Z,75.53
2022-12-16T16:24:49.023Z,76.00
2022-12-16T16:27:39.781Z,76.40
2022-12-16T16:30:31.939Z,76.71
2022-12-16T16:33:22.134Z,76.93
2022-12-16T16:36:11.851Z,76.72
2022-12-16T16:39:00.580Z,76.99
2022-12-16T16:41:49.177Z,76.99
2022-12-16T16:44:37.430Z,76.95
2022-12-16T16:47:35.139Z,77.52
2022-12-16T16:50:23.342Z,77.66
2022-12-16T16:53:11.437Z,77.37
2022-12-16T16:55:59.157Z,77.80
2022-12-16T16:58:50.483Z,77.80
2022-12-16T17:01:39.057Z,77.64
2022-12-16T17:04:27.259Z,77.81
2022-12-16T17:07:15.093Z,77.70
2022-12-16T17:10:03.247Z,77.44
2022-12-16T17:12:51.201Z,77.81
2022-12-16T17:15:51.570Z,77.54
2022-12-16T17:18:44.649Z,77.61
2022-12-16T17:21:35.014Z,77.22
2022-12-16T17:24:23.694Z,77.39
2022-12-16T17:27:11.783Z,77.49
2022-12-16T17:30:00.058Z,77.80
2022-12-16T17:33:08.191Z,77.73
2022-12-16T17:35:56.708Z,77.51
2022-12-16T17:38:44.891Z,77.78
2022-12-16T17:41:33.260Z,77.75
2022-12-16T17:44:21.131Z,78.38
2022-12-16T17:47:12.344Z,78.67
2022-12-16T17:50:00.303Z,78.50
2022-12-16T17:52:49.242Z,78.64
2022-12-16T17:55:37.609Z,78.89
2022-12-16T17:58:25.485Z,79.43
2022-12-16T18:01:13.623Z,79.99
2022-12-16T18:04:02.342Z,79.95
2022-12-16T18:06:50.154Z,80.36
2022-12-16T18:09:38.264Z,80.21
2022-12-16T18:12:25.814Z,80.46
2022-12-16T18:15:13.833Z,80.57
2022-12-16T18:18:01.458Z,80.77
2022-12-16T18:20:49.253Z,81.16
2022-12-16T18:23:37.366Z,81.16
2022-12-16T18:26:28.684Z,80.63
2022-12-16T18:29:16.833Z,80.53
2022-12-16T18:32:05.042Z,80.26
2022-12-16T18:34:52.941Z,80.77
2022-12-16T18:37:41.057Z,80.46
2022-12-16T18:40:29.547Z,80.36
2022-12-16T18:43:17.695Z,80.40
2022-12-16T18:46:12.490Z,80.51
2022-12-16T18:49:00.416Z,80.70
2022-12-16T18:51:48.424Z,80.39
2022-12-16T18:54:36.438Z,80.36
2022-12-16T18:57:24.448Z,80.06
2022-12-16T19:00:12.911Z,80.12
2022-12-16T19:03:00.637Z,80.05
2022-12-16T19:05:48.741Z,79.55
2022-12-16T19:08:36.789Z,79.64
2022-12-16T19:11:24.985Z,80.00
2022-12-16T19:14:12.718Z,80.25
2022-12-16T19:17:00.753Z,79.94
2022-12-16T19:19:48.625Z,79.88
2022-12-16T19:22:36.819Z,79.82
2022-12-16T19:25:24.639Z,80.11
2022-12-16T19:28:12.428Z,80.28
2022-12-16T19:31:00.102Z,80.46
2022-12-16T19:33:47.672Z,80.13
2022-12-16T19:36:40.597Z,80.37
2022-12-16T19:39:31.511Z,80.31
2022-12-16T19:42:19.683Z,80.15
2022-12-16T19:45:07.243Z,80.24
2022-12-16T19:47:57.442Z,80.16
2022-12-16T19:50:45.418Z,79.90
2022-12-16T19:53:33.671Z,79.84
2022-12-16T19:56:21.238Z,80.10
2022-12-16T19:59:09.125Z,80.40
2022-12-16T20:01:57.534Z,80.73
2022-12-16T20:04:45.912Z,81.10
2022-12-16T20:07:33.717Z,81.07
2022-12-16T20:10:21.513Z,81.56
2022-12-16T20:13:09.148Z,81.49
2022-12-16T20:15:57.305Z,81.05
2022-12-16T20:18:44.754Z,80.94
2022-12-16T20:21:32.406Z,80.74
2022-12-16T20:24:20.677Z,80.66
2022-12-16T20:27:08.725Z,81.00
2022-12-16T20:29:57.169Z,81.15
2022-12-16T20:32:44.900Z,81.43
2022-12-16T20:35:33.125Z,81.32
2022-12-16T20:38:21.015Z,81.81
2022-12-16T20:41:18.382Z,82.31
2022-12-16T20:44:10.479Z,82.32
2022-12-16T20:46:59.099Z,82.25
2022-12-16T20:49:46.634Z,82.13
2022-12-16T20:52:34.686Z,82.43
2022-12-16T20:55:22.670Z,82.62
2022-12-16T20:58:10.808Z,82.93
2022-12-16T21:00:58.848Z,82.86
2022-12-16T21:03:46.542Z,83.27
2022-12-16T21:06:34.426Z,83.41
2022-12-16T21:09:33.268Z,83.61
2022-12-16T21:12:20.974Z,83.79
2022-12-16T21:15:08.727Z,83.60
2022-12-16T21:17:57.466Z,84.05
2022-12-16T21:20:45.235Z,84.21
2022-12-16T21:23:32.747Z,84.00
2022-12-16T21:26:20.568Z,84.13
2022-12-16T21:29:08.415Z,84.43
2022-12-16T21:31:57.179Z,84.39
2022-12-16T21:34:44.986Z,84.45
2022-12-16T21:37:33.270Z,84.11
2022-12-16T21:40:20.939Z,84.27
2022-12-16T21:43:09.293Z,84.19
2022-12-16T21:46:01.822Z,84.37
2022-12-16T21:48:49.884Z,84.88
2022-12-16T21:51:38.004Z,84.67
2022-12-16T21:54:25.949Z,84.80
2022-12-16T21:57:13.695Z,84.97
2022-12-16T22:00:01.504Z,85.17
2022-12-16T22:02:58.291Z,85.18
2022-12-16T22:05:46.007Z,85.56
2022-12-16T22:08:33.664Z,85.53
2022-12-16T22:11:32.344Z,85.97
2022-12-16T22:14:20.236Z,85.97
2022-12-16T22:17:08.124Z,86.07
2022-12-16T22:19:56.517Z,86.03
2022-12-16T22:22:44.067Z,86.06
2022-12-16T22:25:32.073Z,86.20
2022-12-16T22:28:19.707Z,86.16
2022-12-16T22:31:15.856Z,86.62
2022-12-16T22:34:04.455Z,86.12
2022-12-16T22:36:52.156Z,86.55
2022-12-16T22:39:44.583Z,86.61
2022-12-16T22:42:33.186Z,86.30
2022-12-16T22:45:20.794Z,86.60
2022-12-16T22:48:08.627Z,86.74
2022-12-16T22:50:56.918Z,86.49
2022-12-16T22:53:45.333Z,86.43
2022-12-16T22:56:33.283Z,86.28
2022-12-16T22:59:20.925Z,86.03
2022-12-16T23:02:08.865Z,86.31
2022-12-16T23:04:57.816Z,86.02
2022-12-16T23:07:45.966Z,86.90
2022-12-16T23:10:33.827Z,86.96
2022-12-16T23:13:21.674Z,86.51
2022-12-16T23:16:09.464Z,86.94
2022-12-16T23:19:00.609Z,86.91
2022-12-16T23:21:48.331Z,86.79
2022-12-16T23:24:36.116Z,86.22
2022-12-16T23:27:24.017Z,86.81
2022-12-16T23:30:11.848Z,87.06
2022-12-16T23:32:59.394Z,87.13
2022-12-16T23:35:47.000Z,87.17
2022-12-16T23:38:34.858Z,86.91
2022-12-16T23:41:22.733Z,86.84
2022-12-16T23:44:10.456Z,87.21
2022-12-16T23:46:58.237Z,87.15
2022-12-16T23:49:46.255Z,87.00
2022-12-16T23:52:34.131Z,87.31
2022-12-16T23:55:21.932Z,87.97
2022-12-16T23:58:18.533Z,88.27
